createdAt,value
2023-05-22T00:01:55.217Z,9.20
2023-05-22T00:04:24.361Z,8.90
2023-05-22T00:06:55.080Z,9.35
2023-05-22T00:09:23.764Z,8.30
2023-05-22T00:11:50.412Z,8.85
2023-05-22T00:14:16.996Z,8.63
2023-05-22T00:16:49.487Z,9.00
2023-05-22T00:19:18.421Z,9.77
2023-05-22T00:21:45.854Z,8.00
2023-05-22T00:24:12.745Z,9.68
2023-05-22T00:26:39.352Z,9.65
2023-05-22T00:29:06.052Z,9.52
2023-05-22T00:31:33.151Z,9.60
2023-05-22T00:34:00.017Z,9.07
2023-05-22T00:36:26.649Z,9.70
2023-05-22T00:38:53.227Z,9.32
2023-05-22T00:41:23.665Z,9.18
2023-05-22T00:43:55.236Z,9.27
2023-05-22T00:46:21.912Z,9.85
2023-05-22T00:48:48.671Z,9.30
2023-05-22T00:51:15.253Z,9.57
2023-05-22T00:53:41.932Z,9.25
2023-05-22T00:56:15.216Z,9.23
2023-05-22T00:58:43.155Z,9.98
2023-05-22T01:01:10.841Z,9.00
2023-05-22T01:03:42.749Z,9.13
2023-05-22T01:06:09.545Z,9.45
2023-05-22T01:08:36.153Z,10.50
2023-05-22T01:11:10.112Z,9.82
2023-05-22T01:13:58.084Z,9.20
2023-05-22T01:16:30.821Z,9.48
2023-05-22T01:19:25.152Z,9.52
2023-05-22T01:22:03.824Z,9.30
2023-05-22T01:24:33.260Z,10.07
2023-05-22T01:27:20.054Z,11.18
2023-05-22T01:30:05.283Z,9.70
2023-05-22T01:32:33.017Z,9.90
2023-05-22T01:35:02.319Z,9.60
2023-05-22T01:37:29.639Z,9.50
2023-05-22T01:39:56.382Z,11.05
2023-05-22T01:42:23.145Z,10.45
2023-05-22T01:44:49.753Z,10.70
2023-05-22T01:47:16.403Z,11.25
2023-05-22T01:49:43.249Z,10.23
2023-05-22T01:52:31.686Z,10.73
2023-05-22T01:55:00.987Z,10.63
2023-05-22T01:57:31.100Z,11.35
2023-05-22T02:00:04.481Z,11.30
2023-05-22T02:02:37.994Z,11.73
2023-05-22T02:05:05.373Z,11.32
2023-05-22T02:07:32.935Z,12.02
2023-05-22T02:10:00.422Z,11.68
2023-05-22T02:12:29.858Z,11.85
2023-05-22T02:14:57.605Z,11.40
2023-05-22T02:17:27.577Z,11.50
2023-05-22T02:19:57.150Z,12.43
2023-05-22T02:22:25.133Z,10.88
2023-05-22T02:24:52.282Z,12.82
2023-05-22T02:27:18.944Z,12.52
2023-05-22T02:29:45.566Z,11.95
2023-05-22T02:32:18.213Z,11.70
2023-05-22T02:34:45.367Z,12.40
2023-05-22T02:37:11.908Z,13.05
2023-05-22T02:39:41.770Z,12.52
2023-05-22T02:42:08.568Z,12.65
2023-05-22T02:44:35.184Z,12.73
2023-05-22T02:47:01.969Z,12.65
2023-05-22T02:49:29.024Z,13.18
2023-05-22T02:51:55.675Z,12.13
2023-05-22T02:54:22.351Z,13.15
2023-05-22T02:56:48.962Z,12.45
2023-05-22T02:59:17.896Z,13.63
2023-05-22T03:01:44.553Z,12.40
2023-05-22T03:04:11.438Z,13.52
2023-05-22T03:06:40.169Z,13.65
2023-05-22T03:09:10.404Z,13.65
2023-05-22T03:11:37.824Z,13.40
2023-05-22T03:14:04.536Z,14.00
2023-05-22T03:16:31.173Z,12.80
2023-05-22T03:19:10.832Z,13.00
2023-05-22T03:21:37.603Z,13.50
2023-05-22T03:24:04.348Z,12.85
2023-05-22T03:26:31.044Z,13.48
2023-05-22T03:28:57.892Z,14.18
2023-05-22T03:31:26.966Z,13.50
2023-05-22T03:33:56.236Z,14.23
2023-05-22T03:36:22.879Z,14.77
2023-05-22T03:38:55.948Z,15.05
2023-05-22T03:41:22.610Z,14.77
2023-05-22T03:43:49.170Z,15.25
2023-05-22T03:46:15.870Z,14.02
2023-05-22T03:48:42.470Z,14.80
2023-05-22T03:51:17.581Z,14.48
2023-05-22T03:53:45.934Z,14.00
2023-05-22T03:56:17.109Z,14.10
2023-05-22T03:58:43.761Z,14.90
2023-05-22T04:01:10.350Z,13.65
2023-05-22T04:03:37.490Z,14.75
2023-05-22T04:06:09.856Z,13.82
2023-05-22T04:08:39.142Z,14.35
2023-05-22T04:11:06.758Z,14.73
2023-05-22T04:13:33.303Z,15.80
2023-05-22T04:16:07.196Z,14.45
2023-05-22T04:18:34.640Z,14.80
2023-05-22T04:21:07.454Z,15.25
2023-05-22T04:23:34.982Z,15.75
2023-05-22T04:26:01.526Z,15.80
2023-05-22T04:28:28.484Z,15.52
2023-05-22T04:30:55.061Z,13.88
2023-05-22T04:33:23.762Z,17.15
2023-05-22T04:35:53.137Z,14.07
2023-05-22T04:38:19.791Z,14.45
2023-05-22T04:40:46.595Z,14.65
2023-05-22T04:43:14.684Z,16.00
2023-05-22T04:45:41.282Z,17.15
2023-05-22T04:48:08.012Z,15.25
2023-05-22T04:50:35.696Z,15.88
2023-05-22T04:53:02.309Z,15.77
2023-05-22T04:55:28.918Z,15.05
2023-05-22T04:57:57.105Z,15.70
2023-05-22T05:00:32.746Z,17.05
2023-05-22T05:03:01.202Z,16.30
2023-05-22T05:05:27.878Z,14.52
2023-05-22T05:07:54.444Z,15.45
2023-05-22T05:10:21.039Z,15.38
2023-05-22T05:12:48.668Z,16.00
2023-05-22T05:15:15.301Z,15.35
2023-05-22T05:17:44.845Z,15.45
2023-05-22T05:20:13.290Z,16.88
2023-05-22T05:22:46.045Z,15.63
2023-05-22T05:25:13.341Z,16.67
2023-05-22T05:27:39.992Z,15.75
2023-05-22T05:30:06.967Z,15.98
2023-05-22T05:32:33.596Z,16.23
2023-05-22T05:35:03.173Z,16.60
2023-05-22T05:37:29.775Z,15.88
2023-05-22T05:39:58.239Z,15.60
2023-05-22T05:42:24.886Z,15.60
2023-05-22T05:44:51.465Z,16.25
2023-05-22T05:47:20.157Z,16.30
2023-05-22T05:49:49.442Z,14.32
2023-05-22T05:52:16.181Z,16.25
2023-05-22T05:54:42.848Z,14.48
2023-05-22T05:57:09.391Z,14.77
2023-05-22T06:29:07.007Z,15.88
2023-05-22T18:55:29.978Z,7.45
2023-05-22T18:57:56.604Z,7.10
2023-05-22T19:00:23.254Z,7.35
2023-05-22T19:02:49.924Z,8.23
2023-05-22T19:05:16.559Z,8.07
2023-05-22T19:07:46.975Z,11.70
2023-05-22T19:10:19.713Z,9.48
2023-05-22T19:12:46.530Z,9.40
2023-05-22T19:15:13.249Z,9.52
2023-05-22T19:17:39.933Z,12.35
2023-05-22T19:20:14.049Z,10.70
2023-05-22T19:22:41.875Z,11.50
2023-05-22T19:25:11.468Z,9.10
2023-05-22T19:27:43.813Z,8.93
2023-05-22T19:30:10.725Z,10.38
2023-05-22T19:32:37.387Z,9.70
2023-05-22T19:35:04.196Z,10.65
2023-05-22T19:37:30.794Z,10.85
2023-05-22T19:39:57.440Z,10.48
2023-05-22T19:42:23.991Z,11.10
2023-05-22T19:44:52.798Z,10.00
2023-05-22T19:47:19.351Z,10.13
2023-05-22T19:49:46.027Z,8.98
2023-05-22T19:52:14.248Z,8.77
2023-05-22T19:54:40.841Z,9.45
2023-05-22T19:57:07.398Z,10.43
2023-05-22T19:59:37.027Z,9.25
2023-05-22T20:02:03.863Z,9.68
2023-05-22T20:04:30.559Z,9.63
2023-05-22T20:06:57.418Z,9.32
2023-05-22T20:09:24.081Z,10.18
2023-05-22T20:11:50.619Z,9.85
2023-05-22T20:14:17.241Z,9.90
2023-05-22T20:16:43.822Z,9.52
2023-05-22T20:19:10.575Z,9.73
2023-05-22T20:21:37.318Z,9.98
2023-05-22T20:24:04.054Z,9.48
2023-05-22T20:26:32.452Z,9.13
2023-05-22T20:29:03.698Z,10.23
2023-05-22T20:31:30.394Z,10.57
2023-05-22T20:33:58.828Z,9.45
2023-05-22T20:36:25.376Z,9.48
2023-05-22T20:38:51.952Z,9.57
2023-05-22T20:41:18.634Z,10.18
2023-05-22T20:43:45.525Z,10.10
2023-05-22T20:46:15.977Z,9.55
2023-05-22T20:48:42.521Z,9.25
2023-05-22T20:51:11.848Z,9.60
2023-05-22T20:53:38.398Z,8.50
2023-05-22T20:56:07.388Z,9.98
2023-05-22T20:58:33.978Z,9.60
2023-05-22T21:01:00.632Z,10.30
2023-05-22T21:03:30.147Z,10.30
2023-05-22T21:05:57.705Z,10.35
2023-05-22T21:08:24.702Z,9.93
2023-05-22T21:10:51.272Z,10.32
2023-05-22T21:13:19.147Z,8.68
2023-05-22T21:15:52.323Z,10.15
2023-05-22T21:18:21.996Z,9.95
2023-05-22T21:20:50.000Z,10.00
2023-05-22T21:23:24.727Z,10.15
2023-05-22T21:25:53.045Z,9.55
2023-05-22T21:28:22.198Z,10.52
2023-05-22T21:30:48.834Z,10.30
2023-05-22T21:33:15.442Z,10.10
2023-05-22T21:35:42.030Z,10.55
2023-05-22T21:38:16.160Z,10.23
2023-05-22T21:40:43.698Z,10.48
2023-05-22T21:43:13.502Z,11.10
2023-05-22T21:45:40.348Z,9.77
2023-05-22T21:48:06.965Z,10.23
2023-05-22T21:50:33.558Z,10.30
2023-05-22T21:53:00.133Z,9.45
2023-05-22T21:55:26.689Z,10.13
2023-05-22T21:57:53.282Z,10.05
2023-05-22T22:00:21.208Z,9.77
2023-05-22T22:02:52.120Z,10.25
2023-05-22T22:05:22.025Z,10.23
2023-05-22T22:07:48.656Z,9.85
2023-05-22T22:10:18.948Z,9.38
2023-05-22T22:12:52.510Z,9.73
2023-05-22T22:15:25.898Z,10.52
2023-05-22T22:17:53.463Z,9.77
2023-05-22T22:20:24.800Z,10.25
2023-05-22T22:22:57.011Z,10.07
2023-05-22T22:25:32.616Z,9.32
2023-05-22T22:28:00.481Z,10.23
2023-05-22T22:30:27.057Z,10.43
2023-05-22T22:32:56.165Z,9.70
2023-05-22T22:35:22.744Z,9.77
2023-05-22T22:37:52.774Z,10.65
2023-05-22T22:40:26.782Z,10.10
2023-05-22T22:42:54.931Z,10.48
2023-05-22T22:45:27.718Z,11.18
2023-05-22T22:47:55.485Z,11.00
2023-05-22T22:50:22.297Z,11.55
2023-05-22T22:52:48.884Z,10.45
2023-05-22T22:55:15.609Z,11.07
2023-05-22T22:57:42.400Z,11.07
2023-05-22T23:00:11.649Z,11.05
2023-05-22T23:02:38.289Z,10.13
2023-05-22T23:05:05.112Z,9.98
2023-05-22T23:07:31.778Z,11.18
2023-05-22T23:09:59.553Z,10.00
2023-05-22T23:12:26.120Z,10.80
2023-05-22T23:14:53.014Z,10.38
2023-05-22T23:17:19.639Z,10.32
2023-05-22T23:19:48.788Z,10.57
2023-05-22T23:22:15.392Z,10.13
2023-05-22T23:24:48.424Z,10.02
2023-05-22T23:27:18.895Z,10.65
2023-05-22T23:29:48.378Z,10.27
2023-05-22T23:32:15.108Z,10.02
2023-05-22T23:34:46.855Z,10.48
2023-05-22T23:37:14.347Z,10.68
2023-05-22T23:39:43.748Z,10.50
2023-05-22T23:42:17.961Z,9.15
2023-05-22T23:44:45.493Z,10.13
2023-05-22T23:47:16.117Z,10.43
2023-05-22T23:49:42.650Z,10.23
2023-05-22T23:52:12.417Z,9.38
2023-05-22T23:54:39.611Z,11.07
2023-05-22T23:57:06.153Z,9.75
2023-05-22T23:59:35.757Z,9.35
